This London Heathrow Airport weather forecast is generated by the Met Office Weather Widget

AirNav RadarBox - Metar Weather
  London Heathrow Metar Weather
 

METAR = EGLL 212250Z 24017KT 9999 BKN016 12/09 Q1022 TEMPO BKN014

STATION........ EGLL
OBSERVED....... Sun Dec 21, 22:50 UTC
NOW............ Sun Dec 21, 23:12 UTC
AGE............ 22 min ago
WIND........... WSW at 20 mph
VISIBILITY..... 16 miles
CLOUDS......... mostly cloudy
TEMP........... 54°F (12°C)
DEWPT.......... 48°F (9°C)
HUMIDITY....... 82%
BAROMETER...... 1022 hPa (30.18 in Hg)

Sun Dec 21 2014, sunrise time : 08:09
Sun Dec 21 2014, sunset time : 15:50